Milo, Oklahoma
Current Conditions -  °F | °C
As of 2:35 AM on Thursday 23 Oct 2014 (Local Time) from K1F0 Reporting Station
Overcast Overcast  
Wind Chill: 64°   Ceiling: 9500
Heat Index: 64°   Visibility: 10mi
Dew Point: 54°   Wind: 6mph
Humidity: 68%   Direction: 150°SSE
Pressure: 30.12"   Gusts: NA
Location:  34.2137°N, 97.1822°W
Report Text: K1F0 230735Z AUTO 15005KT 10SM SCT047 BKN095 OVC110 18/12 A3012 RMK AO2
Loading
Personal Weather Stations






























Interactive Weather Map
Tropical Storm Tracking
New forecast layout! Learn more

10-Day Weather Forecast

Advertisements
Track Severe Weather on mobile